Weather at Bauerfield International Airport

Public forecast

Using degrees Celsius for public forecast. Weather courtesy of forecast.io.

Current aviation weather report (METAR) for Bauerfield International Airport

Retrieved 2020/10/29 06:00 UTC (50 minutes ago):

NVVV 290600Z 11005KT 9999 FEW025 25/21 Q1011

Aviation forecast (TAF) for Bauerfield International Airport

Retrieved 2020/10/29 06:00 UTC (50 minutes ago):

TAF NVVV 290430Z 2906/3006 11010KT 9999 FEW020 BECMG 2907/2909 11008KT